Time;durP1;ratioP1;P1;durP2;ratioP2;P2;SDS_P1;SDS_P2;PMS_P1;PMS_P2;Temp;Humidity;BMP_temperature;BMP_pressure;BME280_temperature;BME280_humidity;BME280_pressure;Samples;Min_cycle;Max_cycle;Signal;HPM_P1;HPM_P2
2023/06/19 00:02:05;;;;;;;6.78;6.07;;;22.50;99.90;;;;;;4954550;28;20083;-82
2023/06/19 00:04:32;;;;;;;9.27;7.00;;;22.50;99.90;;;;;;4959128;28;20134;-83
2023/06/19 00:07:04;;;;;;;8.23;7.50;;;22.50;99.90;;;;;;4972869;28;20497;-81
2023/06/19 00:09:31;;;;;;;8.82;7.25;;;22.50;99.90;;;;;;4955734;28;20073;-83
2023/06/19 00:11:59;;;;;;;9.52;6.53;;;22.50;99.90;;;;;;4947682;28;20051;-81
2023/06/19 00:14:26;;;;;;;7.28;6.57;;;22.50;99.90;;;;;;4964365;28;20531;-82
2023/06/19 00:16:53;;;;;;;11.18;6.70;;;22.50;99.90;;;;;;4979863;28;20524;-82
2023/06/19 00:19:19;;;;;;;10.15;6.28;;;22.50;99.90;;;;;;4960694;28;20385;-81
2023/06/19 00:21:46;;;;;;;8.40;7.18;;;22.50;99.90;;;;;;4958456;28;20484;-80
2023/06/19 00:24:13;;;;;;;10.85;7.47;;;22.50;99.90;;;;;;4957402;28;20091;-84
2023/06/19 00:26:40;;;;;;;8.45;6.68;;;22.50;99.90;;;;;;4957751;28;20047;-81
2023/06/19 00:29:07;;;;;;;7.97;7.07;;;22.50;99.90;;;;;;4958414;28;20047;-81
2023/06/19 00:31:37;;;;;;;9.77;7.72;;;22.50;99.90;;;;;;4959159;28;20062;-81
2023/06/19 00:34:03;;;;;;;6.78;5.95;;;22.50;99.90;;;;;;4955106;28;20066;-82
2023/06/19 00:36:30;;;;;;;6.80;5.10;;;22.50;99.90;;;;;;4943534;28;20070;-81
2023/06/19 00:38:57;;;;;;;5.47;4.97;;;22.50;99.90;;;;;;4972488;28;20044;-81
2023/06/19 00:41:27;;;;;;;8.15;5.20;;;22.50;99.90;;;;;;4942809;28;20051;-82
2023/06/19 00:43:54;;;;;;;6.47;4.68;;;22.50;99.90;;;;;;4954147;28;20044;-82
2023/06/19 00:46:21;;;;;;;5.47;4.88;;;22.60;99.90;;;;;;4973855;28;20055;-81
2023/06/19 00:48:48;;;;;;;4.97;4.47;;;22.60;99.90;;;;;;4961296;28;20524;-82
2023/06/19 00:51:15;;;;;;;4.22;3.83;;;22.60;99.90;;;;;;4953304;28;20103;-81
2023/06/19 00:53:42;;;;;;;8.00;4.07;;;22.60;99.90;;;;;;4957112;28;20058;-82
2023/06/19 00:56:09;;;;;;;4.40;3.42;;;22.60;99.90;;;;;;4972484;28;20078;-81
2023/06/19 00:58:36;;;;;;;4.40;3.20;;;22.70;99.90;;;;;;4977259;28;20570;-81
2023/06/19 01:01:03;;;;;;;5.85;3.22;;;22.70;99.90;;;;;;4960495;28;20566;-82
2023/06/19 01:03:36;;;;;;;5.78;3.33;;;22.70;99.90;;;;;;4963476;28;20053;-82
2023/06/19 01:06:14;;;;;;;6.93;3.95;;;22.70;99.90;;;;;;4963141;28;20078;-82
2023/06/19 01:09:04;;;;;;;6.55;3.30;;;22.70;99.90;;;;;;4963505;28;20059;-82
2023/06/19 01:11:33;;;;;;;;;;;22.70;99.90;;;;;;4965529;28;20059;-83
2023/06/19 01:14:12;;;;;;;7.00;3.53;;;22.70;99.90;;;;;;4980397;28;19922;-82
2023/06/19 01:16:39;;;;;;;4.95;3.10;;;22.80;99.90;;;;;;4967863;28;20054;-81
2023/06/19 01:19:10;;;;;;;3.78;3.00;;;22.80;99.90;;;;;;4963038;28;20043;-81
2023/06/19 01:21:38;;;;;;;3.65;3.17;;;22.80;99.90;;;;;;4962309;28;20085;-81
2023/06/19 01:24:05;;;;;;;3.20;2.83;;;22.80;99.90;;;;;;4953894;28;20126;-80
2023/06/19 01:26:32;;;;;;;7.45;3.30;;;22.80;99.90;;;;;;4978530;28;20051;-82
2023/06/19 01:28:58;;;;;;;8.60;3.95;;;22.80;99.90;;;;;;4962232;28;20118;-81
2023/06/19 01:31:42;;;;;;;9.43;4.25;;;22.80;99.90;;;;;;4962378;28;20055;-81
2023/06/19 01:34:11;;;;;;;6.90;4.18;;;22.80;99.90;;;;;;4959467;28;20059;-81
2023/06/19 01:36:38;;;;;;;10.77;4.65;;;22.80;99.90;;;;;;4982809;28;20070;-82
2023/06/19 01:39:06;;;;;;;7.45;4.57;;;22.80;99.90;;;;;;4975000;28;20066;-81
2023/06/19 01:41:34;;;;;;;13.20;4.78;;;22.70;99.90;;;;;;4963411;28;20081;-81
2023/06/19 01:44:01;;;;;;;8.73;4.57;;;22.70;99.90;;;;;;4961065;28;20067;-83
2023/06/19 01:46:29;;;;;;;8.45;4.82;;;22.70;99.90;;;;;;4961536;28;20055;-81
2023/06/19 01:48:56;;;;;;;9.13;5.95;;;22.60;99.90;;;;;;4962873;28;20130;-81
2023/06/19 01:51:23;;;;;;;13.43;7.20;;;22.60;99.90;;;;;;4960982;28;20117;-83
2023/06/19 01:53:49;;;;;;;9.93;4.85;;;22.60;99.90;;;;;;4959512;28;20063;-80
2023/06/19 01:56:16;;;;;;;7.90;4.63;;;22.50;99.90;;;;;;4951488;28;20078;-82
2023/06/19 01:58:43;;;;;;;7.68;5.07;;;22.50;99.90;;;;;;4968583;28;20057;-82
2023/06/19 02:01:10;;;;;;;6.75;4.85;;;22.50;99.90;;;;;;4981125;28;20060;-82
2023/06/19 02:03:36;;;;;;;6.93;4.85;;;22.50;99.90;;;;;;4982616;28;20047;-82
2023/06/19 02:06:03;;;;;;;8.25;5.15;;;22.40;99.90;;;;;;4979494;28;20050;-81
2023/06/19 02:08:30;;;;;;;7.30;5.00;;;22.40;99.90;;;;;;4964060;28;20051;-81
2023/06/19 02:10:57;;;;;;;9.90;5.28;;;22.40;99.90;;;;;;4959626;28;20051;-81
2023/06/19 02:13:24;;;;;;;9.25;5.00;;;22.40;99.90;;;;;;4953777;28;20059;-82
2023/06/19 02:15:51;;;;;;;5.80;4.63;;;22.30;99.90;;;;;;4961677;28;20047;-81
2023/06/19 02:18:18;;;;;;;5.82;5.03;;;22.30;99.90;;;;;;4978430;28;20055;-82
2023/06/19 02:20:44;;;;;;;9.52;5.32;;;22.30;99.90;;;;;;4952003;28;20043;-81
2023/06/19 02:23:11;;;;;;;7.82;5.78;;;22.30;99.90;;;;;;4951698;28;20055;-81
2023/06/19 02:25:38;;;;;;;6.13;5.53;;;22.30;99.90;;;;;;4975957;28;20055;-82
2023/06/19 02:28:05;;;;;;;6.88;6.15;;;22.20;99.90;;;;;;4957520;28;20477;-81
2023/06/19 02:30:31;;;;;;;8.80;6.40;;;22.20;99.90;;;;;;4961073;28;20110;-81
2023/06/19 02:32:58;;;;;;;9.63;7.13;;;22.20;99.90;;;;;;4958405;28;20101;-82
2023/06/19 02:35:25;;;;;;;9.40;6.90;;;22.20;99.90;;;;;;4951708;28;20082;-81
2023/06/19 02:37:52;;;;;;;9.45;6.45;;;22.10;99.90;;;;;;4980580;28;20044;-81
2023/06/19 02:40:19;;;;;;;8.48;7.03;;;22.10;99.90;;;;;;4981205;28;20055;-82
2023/06/19 02:42:45;;;;;;;8.15;7.40;;;22.10;99.90;;;;;;4964860;28;20510;-81
2023/06/19 02:45:12;;;;;;;9.73;7.28;;;22.10;99.90;;;;;;4965160;28;20121;-81
2023/06/19 02:47:39;;;;;;;8.73;6.78;;;22.10;99.90;;;;;;4981251;28;20098;-81
2023/06/19 02:50:06;;;;;;;7.10;6.30;;;22.00;99.90;;;;;;4982808;28;20106;-83
2023/06/19 02:52:33;;;;;;;9.00;6.47;;;22.00;99.90;;;;;;4962322;28;20086;-84
2023/06/19 02:55:00;;;;;;;7.75;6.05;;;22.00;99.90;;;;;;4981507;28;20055;-81
2023/06/19 02:57:27;;;;;;;7.40;5.60;;;22.00;99.90;;;;;;4982024;28;20371;-82
2023/06/19 02:59:54;;;;;;;6.28;5.57;;;21.90;99.90;;;;;;4961984;28;20059;-81
2023/06/19 03:02:21;;;;;;;6.28;4.85;;;21.90;99.90;;;;;;4963140;28;20126;-82
2023/06/19 03:04:48;;;;;;;8.35;5.30;;;21.90;99.90;;;;;;4960209;28;20047;-82
2023/06/19 03:07:16;;;;;;;6.78;6.15;;;21.80;99.90;;;;;;4961095;28;20051;-80
2023/06/19 03:09:43;;;;;;;6.53;5.80;;;21.80;99.90;;;;;;4964122;28;20047;-80
2023/06/19 03:12:10;;;;;;;6.10;5.50;;;21.80;99.90;;;;;;4962640;28;20056;-82
2023/06/19 03:14:37;;;;;;;8.27;5.68;;;21.80;99.90;;;;;;4976885;28;20176;-81
2023/06/19 03:17:04;;;;;;;7.57;4.90;;;21.80;99.90;;;;;;4958172;28;20548;-83
2023/06/19 03:19:31;;;;;;;8.77;5.53;;;21.70;99.90;;;;;;4958338;28;20083;-81
2023/06/19 03:21:58;;;;;;;5.80;5.13;;;21.70;99.90;;;;;;4960141;28;20047;-82
2023/06/19 03:24:26;;;;;;;5.53;4.95;;;21.70;99.90;;;;;;4957007;28;20055;-81
2023/06/19 03:26:53;;;;;;;7.15;4.93;;;21.70;99.90;;;;;;4959842;28;20058;-81
2023/06/19 03:29:20;;;;;;;9.40;5.60;;;21.70;99.90;;;;;;4955702;28;20060;-81
2023/06/19 03:31:46;;;;;;;6.22;5.60;;;21.70;99.90;;;;;;4974796;28;20051;-82
2023/06/19 03:34:13;;;;;;;6.53;5.75;;;21.70;99.90;;;;;;4974945;28;20062;-81
2023/06/19 03:36:40;;;;;;;6.38;5.10;;;21.70;99.90;;;;;;4958806;28;20054;-81
2023/06/19 03:39:07;;;;;;;5.88;5.30;;;21.70;99.90;;;;;;4974235;28;20489;-82
2023/06/19 03:41:34;;;;;;;6.15;4.97;;;21.70;99.90;;;;;;4987549;28;20051;-82
2023/06/19 03:44:00;;;;;;;6.78;4.80;;;21.70;99.90;;;;;;4964404;28;20051;-81
2023/06/19 03:46:27;;;;;;;6.60;5.07;;;21.70;99.90;;;;;;4968803;28;20056;-82
2023/06/19 03:48:54;;;;;;;5.65;5.13;;;21.60;99.90;;;;;;4964658;28;20110;-80
2023/06/19 03:51:21;;;;;;;6.43;4.90;;;21.60;99.90;;;;;;4979798;28;20051;-80
2023/06/19 03:53:47;;;;;;;6.15;5.03;;;21.60;99.90;;;;;;4964312;28;20094;-81
2023/06/19 03:56:14;;;;;;;5.53;4.70;;;21.50;99.90;;;;;;4967033;28;20070;-81
2023/06/19 03:58:41;;;;;;;6.78;4.53;;;21.50;99.90;;;;;;4978514;28;20055;-81
2023/06/19 04:01:08;;;;;;;7.90;5.25;;;21.50;99.90;;;;;;4966250;28;20043;-81
2023/06/19 04:03:35;;;;;;;5.57;4.93;;;21.50;99.90;;;;;;4978593;28;20134;-81
2023/06/19 04:06:01;;;;;;;4.78;4.38;;;21.50;99.90;;;;;;4971908;28;20407;-81
2023/06/19 04:08:28;;;;;;;4.35;3.95;;;21.50;99.90;;;;;;4965800;28;20047;-81
2023/06/19 04:10:55;;;;;;;5.75;4.70;;;21.50;99.90;;;;;;4968605;28;20081;-82
2023/06/19 04:13:22;;;;;;;5.43;4.72;;;21.50;99.90;;;;;;4986005;28;20039;-81
2023/06/19 04:15:48;;;;;;;6.63;4.40;;;21.50;99.90;;;;;;4977422;28;20051;-80
2023/06/19 04:18:17;;;;;;;5.57;4.75;;;21.50;99.90;;;;;;4970162;28;20138;-81
2023/06/19 04:20:43;;;;;;;5.40;4.18;;;21.50;99.90;;;;;;4960267;28;20063;-80
2023/06/19 04:23:10;;;;;;;5.97;4.93;;;21.40;99.90;;;;;;4947864;28;20063;-82
2023/06/19 04:25:37;;;;;;;5.10;4.60;;;21.50;99.90;;;;;;4960009;28;20090;-81
2023/06/19 04:28:04;;;;;;;5.40;4.90;;;21.50;99.90;;;;;;4956873;28;20102;-80
2023/06/19 04:30:30;;;;;;;9.02;5.47;;;21.50;99.90;;;;;;4959624;28;20102;-80
2023/06/19 04:32:58;;;;;;;5.85;5.35;;;21.50;99.90;;;;;;4960466;28;20052;-83
2023/06/19 04:35:25;;;;;;;6.97;5.20;;;21.50;99.90;;;;;;4962992;28;20047;-81
2023/06/19 04:37:53;;;;;;;6.40;4.57;;;21.50;99.90;;;;;;4970117;28;20051;-81
2023/06/19 04:40:20;;;;;;;5.32;4.82;;;21.60;99.90;;;;;;4958856;28;20051;-81
2023/06/19 04:42:47;;;;;;;7.18;5.00;;;21.60;99.90;;;;;;4978496;28;20051;-82
2023/06/19 04:45:14;;;;;;;5.00;4.32;;;21.60;99.90;;;;;;4962610;28;20051;-81
2023/06/19 04:47:41;;;;;;;5.38;4.88;;;21.60;99.90;;;;;;4952992;28;20080;-81
2023/06/19 04:50:18;;;;;;;5.78;3.90;;;21.60;99.90;;;;;;4963386;28;20114;-81
2023/06/19 04:52:45;;;;;;;4.63;4.22;;;21.60;99.90;;;;;;4962708;28;20055;-81
2023/06/19 04:55:12;;;;;;;5.95;4.90;;;21.60;99.90;;;;;;4960133;28;20047;-83
2023/06/19 04:57:39;;;;;;;6.35;4.50;;;21.60;99.90;;;;;;4951338;28;20568;-82
2023/06/19 05:00:07;;;;;;;7.10;4.45;;;21.70;99.90;;;;;;4960466;28;20150;-83
2023/06/19 05:02:33;;;;;;;8.05;3.90;;;21.70;99.90;;;;;;4967484;28;20087;-82
2023/06/19 05:05:02;;;;;;;4.20;3.80;;;21.70;99.90;;;;;;4962469;28;20536;-82
2023/06/19 05:07:32;;;;;;;4.00;3.30;;;21.70;99.90;;;;;;4972615;28;20052;-82
2023/06/19 05:09:59;;;;;;;4.35;3.42;;;21.70;99.90;;;;;;4962603;28;20077;-81
2023/06/19 05:12:26;;;;;;;6.18;3.70;;;21.70;99.90;;;;;;4980953;28;20102;-82
2023/06/19 05:14:52;;;;;;;5.22;4.03;;;21.80;99.90;;;;;;4967933;28;20074;-82
2023/06/19 05:17:19;;;;;;;4.13;3.65;;;21.80;99.90;;;;;;4978610;28;20139;-81
2023/06/19 05:19:47;;;;;;;4.75;3.42;;;21.80;99.90;;;;;;4982151;28;20433;-84
2023/06/19 05:22:13;;;;;;;3.90;3.50;;;21.90;99.90;;;;;;4980819;28;20059;-81
2023/06/19 05:24:40;;;;;;;4.32;3.35;;;21.90;99.90;;;;;;4967125;28;20047;-82
2023/06/19 05:27:07;;;;;;;3.95;3.20;;;21.90;99.90;;;;;;4957142;28;20048;-83
2023/06/19 05:29:34;;;;;;;3.75;3.13;;;22.00;99.90;;;;;;4978925;28;20059;-82
2023/06/19 05:32:01;;;;;;;3.42;3.13;;;22.10;99.90;;;;;;4962677;28;20055;-82
2023/06/19 05:34:28;;;;;;;5.45;3.30;;;22.20;99.90;;;;;;4954929;28;20063;-81
2023/06/19 05:36:55;;;;;;;5.22;2.63;;;22.30;99.90;;;;;;4976676;28;20054;-81
2023/06/19 05:39:22;;;;;;;3.22;2.70;;;22.40;99.90;;;;;;4977103;28;20111;-83
2023/06/19 05:41:48;;;;;;;4.68;2.60;;;22.60;99.90;;;;;;4959875;28;20048;-82
2023/06/19 05:44:16;;;;;;;2.65;2.40;;;22.70;99.90;;;;;;4953212;28;20055;-82
2023/06/19 05:46:43;;;;;;;3.28;2.92;;;22.80;99.90;;;;;;4964929;28;20051;-81
2023/06/19 05:49:10;;;;;;;7.57;2.55;;;22.90;99.90;;;;;;4983245;28;20059;-83
2023/06/19 05:51:37;;;;;;;3.50;2.67;;;23.00;99.90;;;;;;4967752;28;20062;-82
2023/06/19 05:54:04;;;;;;;4.45;2.40;;;23.10;99.90;;;;;;4963044;28;20117;-81
2023/06/19 05:56:32;;;;;;;4.70;2.30;;;23.10;99.90;;;;;;4973402;28;20121;-81
2023/06/19 05:59:01;;;;;;;2.95;2.28;;;23.20;99.90;;;;;;4955869;28;20051;-81
2023/06/19 06:01:29;;;;;;;2.63;2.30;;;23.30;99.90;;;;;;4967422;28;20085;-81
2023/06/19 06:03:56;;;;;;;4.28;2.80;;;23.40;99.90;;;;;;4956134;28;20398;-81
2023/06/19 06:06:25;;;;;;;2.30;2.10;;;23.40;99.90;;;;;;4954981;28;20048;-81
2023/06/19 06:08:52;;;;;;;3.35;2.45;;;23.50;99.90;;;;;;4970147;28;20073;-81
2023/06/19 06:11:19;;;;;;;2.53;2.30;;;23.60;99.90;;;;;;4954051;28;20409;-82
2023/06/19 06:13:46;;;;;;;2.92;2.50;;;23.70;99.90;;;;;;4969500;28;20060;-81
2023/06/19 06:16:14;;;;;;;4.78;2.53;;;23.80;99.90;;;;;;4956024;28;20055;-82
2023/06/19 06:18:40;;;;;;;3.78;2.90;;;23.90;99.90;;;;;;4974174;28;20082;-81
2023/06/19 06:21:08;;;;;;;2.97;2.65;;;24.00;99.90;;;;;;4958592;28;20473;-82
2023/06/19 06:23:35;;;;;;;5.25;3.03;;;24.10;99.90;;;;;;4955686;28;20123;-81
2023/06/19 06:26:02;;;;;;;3.20;2.85;;;24.30;99.90;;;;;;4959994;28;20054;-83
2023/06/19 06:28:30;;;;;;;3.33;2.95;;;24.40;99.90;;;;;;4969856;28;20076;-83
2023/06/19 06:30:57;;;;;;;3.42;2.70;;;24.50;99.90;;;;;;4958179;28;20051;-82
2023/06/19 06:33:24;;;;;;;5.28;3.20;;;24.70;99.90;;;;;;4959247;28;20066;-84
2023/06/19 06:35:53;;;;;;;5.13;3.15;;;24.80;99.90;;;;;;4978051;28;20110;-82
2023/06/19 06:38:20;;;;;;;7.13;2.75;;;24.90;99.90;;;;;;4957787;28;20043;-82
2023/06/19 06:40:47;;;;;;;4.60;3.30;;;25.00;99.90;;;;;;4959618;28;20488;-82
2023/06/19 06:43:13;;;;;;;3.83;2.83;;;25.10;99.90;;;;;;4968942;28;20051;-82
2023/06/19 06:45:42;;;;;;;4.18;3.33;;;25.20;99.90;;;;;;4963319;28;20070;-82
2023/06/19 06:48:09;;;;;;;4.07;2.67;;;25.30;99.90;;;;;;4960448;28;20074;-81
2023/06/19 06:50:36;;;;;;;4.35;3.20;;;25.30;99.90;;;;;;4960477;28;20050;-84
2023/06/19 06:53:03;;;;;;;4.25;3.03;;;25.30;99.90;;;;;;4957703;28;20066;-83
2023/06/19 06:55:30;;;;;;;3.60;3.30;;;25.30;99.90;;;;;;4955885;28;20055;-82
2023/06/19 06:57:56;;;;;;;5.15;3.47;;;25.30;99.90;;;;;;4973474;28;20064;-83
2023/06/19 07:00:23;;;;;;;3.83;3.42;;;25.30;99.90;;;;;;4957046;28;20477;-83
2023/06/19 07:02:51;;;;;;;4.97;3.58;;;25.30;99.90;;;;;;4959525;28;20122;-82
2023/06/19 07:05:17;;;;;;;3.60;3.30;;;25.30;99.90;;;;;;4957914;28;20043;-82
2023/06/19 07:07:44;;;;;;;4.35;2.92;;;25.30;99.90;;;;;;4958271;28;20043;-82
2023/06/19 07:10:11;;;;;;;4.20;3.28;;;25.30;99.90;;;;;;4959416;28;20126;-83
2023/06/19 07:12:48;;;;;;;3.63;3.33;;;25.20;99.90;;;;;;4958832;28;20087;-83
2023/06/19 07:15:15;;;;;;;4.93;3.17;;;25.30;99.90;;;;;;4958176;28;20054;-83
2023/06/19 07:17:44;;;;;;;5.07;3.40;;;25.30;99.90;;;;;;4973440;28;20043;-82
2023/06/19 07:20:11;;;;;;;3.65;3.28;;;25.30;99.90;;;;;;4959042;28;20051;-81
2023/06/19 07:22:38;;;;;;;6.38;3.42;;;25.30;99.90;;;;;;4976944;28;20504;-82
2023/06/19 07:25:05;;;;;;;4.15;3.72;;;25.30;99.90;;;;;;4963729;28;20051;-81
2023/06/19 07:27:32;;;;;;;4.13;3.53;;;25.30;99.90;;;;;;4959421;28;20043;-83
2023/06/19 07:29:59;;;;;;;6.13;3.72;;;25.40;99.90;;;;;;4960980;28;20039;-82
2023/06/19 07:32:26;;;;;;;4.97;3.95;;;25.40;99.90;;;;;;4961500;28;20109;-84
2023/06/19 07:34:53;;;;;;;7.03;3.83;;;25.40;99.90;;;;;;4953706;28;20082;-79
2023/06/19 07:37:20;;;;;;;6.43;3.78;;;25.40;99.90;;;;;;4957077;28;20570;-79
2023/06/19 07:39:49;;;;;;;5.07;3.95;;;25.50;99.90;;;;;;4957251;28;20133;-79
2023/06/19 07:42:17;;;;;;;6.30;4.00;;;25.60;99.90;;;;;;4957006;28;20083;-79
2023/06/19 07:44:45;;;;;;;6.85;4.15;;;25.60;99.90;;;;;;4958858;28;20043;-79
2023/06/19 07:47:13;;;;;;;6.47;4.07;;;25.60;99.90;;;;;;4955617;28;20094;-78
2023/06/19 07:49:40;;;;;;;4.68;4.18;;;25.70;99.90;;;;;;4956859;28;20067;-80
2023/06/19 07:52:09;;;;;;;6.32;4.53;;;25.70;99.90;;;;;;4957259;29;20039;-78
2023/06/19 07:54:36;;;;;;;7.10;3.75;;;25.80;99.90;;;;;;4955170;29;20515;-79
2023/06/19 07:57:03;;;;;;;4.30;3.90;;;25.80;99.90;;;;;;4954985;28;20043;-79
2023/06/19 07:59:30;;;;;;;4.53;4.13;;;25.80;99.90;;;;;;4955282;28;20107;-79
2023/06/19 08:01:56;;;;;;;5.82;4.30;;;25.90;99.90;;;;;;4969468;28;20055;-78
2023/06/19 08:04:23;;;;;;;4.47;4.07;;;25.90;99.90;;;;;;4956916;28;20207;-80
2023/06/19 08:06:50;;;;;;;5.82;4.38;;;25.90;99.90;;;;;;4956426;28;20563;-77
2023/06/19 08:09:17;;;;;;;4.75;4.35;;;25.90;99.90;;;;;;4947691;28;20086;-78
2023/06/19 08:11:43;;;;;;;6.53;4.38;;;25.90;99.90;;;;;;4955274;29;20055;-80
2023/06/19 08:14:10;;;;;;;5.50;4.68;;;26.00;99.90;;;;;;4954092;29;20090;-79
2023/06/19 08:16:37;;;;;;;4.90;4.22;;;26.00;99.90;;;;;;4969629;28;20098;-79
2023/06/19 08:19:03;;;;;;;5.55;4.57;;;26.00;99.90;;;;;;4962586;28;20053;-79
2023/06/19 08:21:30;;;;;;;6.20;3.80;;;26.00;99.90;;;;;;4955964;28;20044;-81
2023/06/19 08:23:58;;;;;;;7.25;4.22;;;26.00;99.90;;;;;;4958807;28;20047;-82
2023/06/19 08:26:25;;;;;;;4.35;3.50;;;26.00;99.90;;;;;;4962354;28;20051;-82
2023/06/19 08:28:51;;;;;;;5.25;3.78;;;26.00;99.90;;;;;;4958487;28;20043;-83
2023/06/19 08:31:18;;;;;;;6.75;4.00;;;26.00;99.90;;;;;;4973653;28;20059;-83
2023/06/19 08:33:48;;;;;;;4.22;3.78;;;26.00;99.90;;;;;;4951722;28;20062;-82
2023/06/19 08:36:18;;;;;;;5.78;3.80;;;26.00;99.90;;;;;;4958989;28;20116;-83
2023/06/19 08:38:49;;;;;;;4.50;3.92;;;26.00;99.90;;;;;;4959297;28;20106;-82
2023/06/19 08:41:18;;;;;;;5.45;4.07;;;26.00;99.90;;;;;;4956280;28;20078;-83
2023/06/19 08:43:46;;;;;;;4.82;3.67;;;26.00;99.90;;;;;;4956617;28;20146;-82
2023/06/19 08:46:15;;;;;;;5.95;3.90;;;26.00;99.90;;;;;;4948884;28;20094;-82
2023/06/19 08:48:42;;;;;;;7.78;4.00;;;26.10;99.90;;;;;;4956556;28;20047;-82
2023/06/19 08:51:10;;;;;;;5.55;4.10;;;26.10;99.90;;;;;;4958217;28;20055;-83
2023/06/19 08:53:46;;;;;;;4.22;3.67;;;26.10;99.90;;;;;;4957723;28;20090;-80
2023/06/19 08:56:13;;;;;;;6.47;3.75;;;26.10;99.90;;;;;;4959270;28;20054;-82
2023/06/19 08:58:40;;;;;;;5.47;3.55;;;26.10;99.10;;;;;;4954324;28;20047;-82
2023/06/19 09:01:07;;;;;;;4.07;3.58;;;26.10;99.10;;;;;;4958674;28;20724;-82
2023/06/19 09:03:34;;;;;;;4.30;3.30;;;26.10;99.70;;;;;;4948157;28;20098;-83
2023/06/19 09:06:07;;;;;;;5.82;3.80;;;26.10;99.70;;;;;;4957216;28;20051;-82
2023/06/19 09:08:34;;;;;;;5.93;3.50;;;26.10;99.90;;;;;;4959443;28;20047;-83
2023/06/19 09:11:03;;;;;;;3.83;3.50;;;26.10;99.90;;;;;;4955212;28;20491;-82
2023/06/19 09:13:30;;;;;;;5.10;3.50;;;26.10;99.30;;;;;;4959491;28;20055;-82
2023/06/19 09:16:00;;;;;;;4.50;3.50;;;26.10;99.10;;;;;;4952506;28;20078;-82
2023/06/19 09:18:27;;;;;;;4.70;3.77;;;26.10;99.10;;;;;;4959012;28;20491;-82
2023/06/19 09:20:54;;;;;;;3.83;3.40;;;26.10;99.80;;;;;;4957838;28;20098;-81
2023/06/19 09:23:21;;;;;;;5.38;3.50;;;26.10;99.20;;;;;;4955748;28;20592;-83
2023/06/19 09:25:50;;;;;;;4.13;3.08;;;26.10;98.80;;;;;;4951100;28;20118;-81
2023/06/19 09:28:25;;;;;;;3.55;3.25;;;26.10;98.50;;;;;;4958556;28;20039;-82
2023/06/19 09:31:00;;;;;;;3.92;3.55;;;26.20;99.00;;;;;;4955965;28;20102;-81
2023/06/19 09:33:28;;;;;;;4.32;3.35;;;26.20;99.10;;;;;;4959486;28;20061;-82
2023/06/19 09:36:01;;;;;;;6.18;3.42;;;26.20;98.80;;;;;;4956237;28;20047;-82
2023/06/19 09:38:30;;;;;;;3.88;3.58;;;26.20;99.10;;;;;;4959534;28;20057;-81
2023/06/19 09:41:00;;;;;;;4.53;3.45;;;26.30;99.80;;;;;;4959671;28;20054;-82
2023/06/19 09:43:33;;;;;;;;;;;26.30;99.30;;;;;;4955371;28;21570;-82
2023/06/19 09:46:02;;;;;;;4.90;3.97;;;26.30;99.70;;;;;;4955868;28;19969;-82
2023/06/19 09:48:30;;;;;;;6.63;4.18;;;26.30;98.90;;;;;;4951082;28;20480;-82
2023/06/19 09:51:05;;;;;;;4.20;3.83;;;26.30;98.80;;;;;;4965994;28;20417;-83
2023/06/19 09:53:33;;;;;;;4.55;4.10;;;26.40;99.60;;;;;;4953727;28;20075;-82
2023/06/19 09:56:00;;;;;;;5.03;4.30;;;26.40;99.90;;;;;;4952212;28;20062;-82
2023/06/19 09:58:29;;;;;;;5.68;3.95;;;26.40;99.80;;;;;;4953580;28;20547;-82
2023/06/19 10:00:56;;;;;;;5.88;4.38;;;26.50;99.80;;;;;;4953807;28;20047;-82
2023/06/19 10:03:31;;;;;;;7.15;4.13;;;26.50;99.90;;;;;;4951033;28;20410;-82
2023/06/19 10:05:59;;;;;;;7.68;3.92;;;26.50;99.60;;;;;;4953911;28;20131;-82
2023/06/19 10:08:31;;;;;;;4.50;4.10;;;26.60;98.70;;;;;;4954399;28;20054;-82
2023/06/19 10:10:58;;;;;;;4.70;3.72;;;26.60;98.60;;;;;;4987725;23;20054;-76
2023/06/19 10:13:33;;;;;;;4.93;4.20;;;26.60;98.80;;;;;;4990036;28;20089;-76
2023/06/19 10:16:00;;;;;;;5.30;4.07;;;26.70;98.90;;;;;;4991019;28;20681;-76
2023/06/19 10:18:28;;;;;;;6.05;4.28;;;26.70;99.20;;;;;;4992872;28;20070;-76
2023/06/19 10:20:55;;;;;;;5.38;4.40;;;26.80;99.70;;;;;;4989991;28;20050;-76
2023/06/19 10:23:24;;;;;;;3.72;3.42;;;26.80;99.30;;;;;;4987625;28;20043;-76
2023/06/19 10:25:53;;;;;;;7.50;4.40;;;27.00;99.70;;;;;;4988228;28;20601;-76
2023/06/19 10:28:26;;;;;;;4.65;4.03;;;27.00;99.50;;;;;;4988351;28;20054;-76
2023/06/19 10:30:54;;;;;;;7.57;3.72;;;27.10;99.40;;;;;;4988252;28;20145;-76
2023/06/19 10:33:26;;;;;;;6.93;4.15;;;27.10;98.90;;;;;;4988605;28;20050;-76
2023/06/19 10:35:53;;;;;;;5.20;4.70;;;27.20;99.40;;;;;;4988384;28;20420;-76
2023/06/19 10:38:20;;;;;;;5.00;4.00;;;27.20;99.50;;;;;;4988569;28;20084;-76
2023/06/19 10:40:47;;;;;;;9.15;4.40;;;27.30;99.80;;;;;;4988446;28;20077;-76
2023/06/19 10:43:27;;;;;;;5.20;4.32;;;27.30;98.90;;;;;;4990168;28;20056;-76
2023/06/19 10:45:54;;;;;;;6.75;3.60;;;27.40;98.80;;;;;;4987209;28;20049;-77
2023/06/19 10:48:23;;;;;;;6.30;3.92;;;27.40;98.50;;;;;;4992716;28;20061;-76
2023/06/19 10:50:51;;;;;;;6.72;3.97;;;27.40;97.90;;;;;;4989406;28;20058;-76
2023/06/19 10:53:29;;;;;;;5.40;4.30;;;27.50;98.20;;;;;;4991697;28;20474;-74
2023/06/19 10:55:58;;;;;;;5.60;4.35;;;27.50;98.40;;;;;;4992455;28;20058;-74
2023/06/19 10:58:26;;;;;;;5.78;4.18;;;27.60;98.20;;;;;;4991603;28;20054;-74
2023/06/19 11:00:53;;;;;;;6.32;4.25;;;27.70;98.20;;;;;;4993695;28;20134;-74
2023/06/19 11:03:21;;;;;;;5.38;4.10;;;27.70;97.90;;;;;;4990349;28;20050;-74
2023/06/19 11:05:48;;;;;;;4.45;3.38;;;27.70;97.40;;;;;;4992030;28;20050;-74
2023/06/19 11:08:20;;;;;;;7.03;3.83;;;27.80;97.80;;;;;;4993834;28;20054;-76
2023/06/19 11:10:47;;;;;;;7.05;3.67;;;27.80;97.60;;;;;;4993102;28;20148;-76
2023/06/19 11:13:19;;;;;;;8.00;4.47;;;27.80;97.00;;;;;;4994431;28;20046;-76
2023/06/19 11:15:49;;;;;;;4.13;3.67;;;27.80;96.70;;;;;;4993372;28;20431;-76
2023/06/19 11:18:17;;;;;;;5.63;3.95;;;27.80;96.50;;;;;;4994526;28;20137;-76
2023/06/19 11:20:49;;;;;;;4.00;3.42;;;27.80;96.70;;;;;;4986658;28;20086;-76
2023/06/19 11:23:27;;;;;;;5.68;4.03;;;27.90;95.80;;;;;;4994522;28;20137;-76
2023/06/19 11:25:53;;;;;;;6.22;3.75;;;27.90;96.00;;;;;;4994587;28;20046;-76
2023/06/19 11:28:22;;;;;;;9.90;4.00;;;28.10;96.00;;;;;;4994881;28;20054;-75
2023/06/19 11:30:57;;;;;;;5.97;3.92;;;28.20;96.20;;;;;;4994264;28;20532;-74
2023/06/19 11:33:24;;;;;;;5.55;3.65;;;28.30;96.10;;;;;;4992581;28;20058;-77
2023/06/19 11:35:52;;;;;;;4.35;3.90;;;28.40;96.20;;;;;;4979409;28;20058;-74
2023/06/19 11:38:24;;;;;;;4.72;3.95;;;28.50;95.90;;;;;;4994356;28;20057;-74
2023/06/19 11:40:51;;;;;;;6.30;3.90;;;28.70;96.00;;;;;;4993560;28;20054;-75
2023/06/19 11:43:29;;;;;;;5.63;3.88;;;28.80;95.50;;;;;;4994284;28;20137;-75
2023/06/19 11:46:07;;;;;;;8.10;3.83;;;28.90;95.50;;;;;;4992111;28;20055;-75
2023/06/19 11:48:37;;;;;;;6.47;3.63;;;29.00;95.20;;;;;;4993748;28;20047;-75
2023/06/19 11:51:04;;;;;;;3.70;3.15;;;29.10;95.90;;;;;;4993842;28;20421;-75
2023/06/19 11:53:31;;;;;;;4.28;3.78;;;29.10;96.00;;;;;;4993261;28;20498;-74
2023/06/19 11:55:58;;;;;;;4.60;3.80;;;29.10;95.80;;;;;;4994077;28;20050;-75
2023/06/19 11:58:25;;;;;;;3.45;3.10;;;29.10;96.10;;;;;;4993639;28;20061;-75
2023/06/19 12:00:53;;;;;;;4.85;3.30;;;29.10;96.20;;;;;;4993505;28;20085;-75
2023/06/19 12:03:20;;;;;;;4.68;3.88;;;29.10;96.20;;;;;;4993848;28;20578;-75
2023/06/19 12:05:47;;;;;;;5.90;3.53;;;29.10;96.30;;;;;;4992796;28;20071;-74
2023/06/19 12:08:14;;;;;;;4.70;3.65;;;29.10;96.50;;;;;;4993341;28;20096;-74
2023/06/19 12:10:41;;;;;;;5.75;3.03;;;29.10;96.30;;;;;;4993480;28;20082;-75
2023/06/19 12:13:08;;;;;;;3.90;3.60;;;29.10;96.00;;;;;;4993702;28;20069;-75
2023/06/19 12:15:35;;;;;;;6.28;3.70;;;29.20;96.10;;;;;;4981269;28;20051;-75
2023/06/19 12:18:04;;;;;;;3.60;3.30;;;29.30;95.40;;;;;;4993391;28;20046;-75
2023/06/19 12:20:31;;;;;;;4.35;3.92;;;29.50;95.20;;;;;;4993406;28;20050;-75
2023/06/19 12:22:58;;;;;;;5.72;3.25;;;29.50;94.70;;;;;;4993395;28;20042;-75
2023/06/19 12:25:24;;;;;;;5.30;3.67;;;29.50;95.40;;;;;;4994289;28;20042;-75
2023/06/19 12:27:51;;;;;;;4.55;3.72;;;29.60;94.80;;;;;;4991952;28;20049;-74
2023/06/19 12:30:21;;;;;;;5.88;3.72;;;29.70;94.50;;;;;;4990726;28;20508;-75
2023/06/19 12:32:49;;;;;;;4.05;3.55;;;29.70;94.30;;;;;;4988894;28;20053;-75
2023/06/19 12:35:17;;;;;;;4.15;3.75;;;29.70;94.60;;;;;;5004608;28;20112;-74
2023/06/19 12:37:45;;;;;;;5.57;4.18;;;29.80;94.20;;;;;;4986802;28;20125;-75
2023/06/19 12:40:11;;;;;;;4.25;3.85;;;29.80;94.00;;;;;;4988639;28;20053;-74
2023/06/19 12:42:38;;;;;;;6.03;4.05;;;29.80;93.90;;;;;;4986731;28;20046;-75
2023/06/19 12:45:05;;;;;;;6.18;3.75;;;29.70;94.50;;;;;;4989225;28;20400;-79
2023/06/19 12:47:32;;;;;;;4.45;3.70;;;29.70;94.10;;;;;;4990593;28;20062;-80
2023/06/19 12:49:59;;;;;;;5.20;3.42;;;29.70;93.80;;;;;;4991226;28;20038;-80
2023/06/19 12:52:26;;;;;;;6.00;3.72;;;29.70;93.80;;;;;;4993143;28;20074;-80